Time;durP1;ratioP1;P1;durP2;ratioP2;P2;SDS_P1;SDS_P2;PMS_P1;PMS_P2;Temp;Humidity;BMP_temperature;BMP_pressure;BME280_temperature;BME280_humidity;BME280_pressure;Samples;Min_cycle;Max_cycle;Signal;HPM_P1;HPM_P2
2022/03/10 06:17:17;;;;;;;;;;;;;;;5.63;52.57;99220.28;4772286;30;19960;-66
2022/03/10 06:19:45;;;;;;;;;;;;;;;5.87;51.67;99226.72;4772755;30;19951;-66
2022/03/10 06:22:19;;;;;;;;;;;;;;;6.42;52.45;99219.81;4773448;30;19987;-66
2022/03/10 06:24:47;;;;;;;;;;;;;;;6.95;49.86;99225.06;4777268;30;19949;-67
2022/03/10 06:27:15;;;;;;;;;;;;;;;7.34;47.52;99225.38;4776044;30;20029;-66
2022/03/10 06:29:43;;;;;;;;;;;;;;;7.60;46.67;99234.09;4776881;30;19954;-67
2022/03/10 06:32:13;;;;;;;;;;;;;;;7.34;47.50;99225.38;4776546;30;19960;-67
2022/03/10 06:34:41;;;;;;;;;;;;;;;7.01;48.44;99225.63;4776754;30;19954;-67
2022/03/10 06:37:10;;;;;;;;;;;;;;;6.82;49.77;99233.78;4773317;30;19951;-67
2022/03/10 06:39:38;;;;;;;;;;;;;;;6.66;50.22;99235.66;4774879;30;19952;-67
2022/03/10 06:42:06;;;;;;;;;;;;;;;6.61;52.54;99234.75;4776940;30;19970;-67
2022/03/10 06:44:34;;;;;;;;;;;;;;;6.89;51.92;99245.94;4777299;30;19956;-67
2022/03/10 06:47:01;;;;;;;;;;;;;;;7.26;50.14;99239.09;4776991;30;19958;-67
2022/03/10 06:49:28;;;;;;;;;;;;;;;7.58;48.12;99237.22;4777421;30;19964;-67
2022/03/10 06:51:56;;;;;;;;;;;;;;;8.05;45.86;99248.44;4777258;30;20347;-67
2022/03/10 06:54:23;;;;;;;;;;;;;;;8.57;43.29;99243.44;4771957;30;19954;-67
2022/03/10 06:56:51;;;;;;;;;;;;;;;8.99;44.10;99248.41;4775240;30;20346;-67
2022/03/10 06:59:18;;;;;;;;;;;;;;;9.45;42.34;99255.78;4776101;30;19963;-67
2022/03/10 07:01:45;;;;;;;;;;;;;;;10.08;40.45;99252.59;4776905;30;19974;-67
2022/03/10 07:04:13;;;;;;;;;;;;;;;11.00;37.50;99252.97;4769689;30;19964;-67
2022/03/10 07:06:40;;;;;;;;;;;;;;;11.79;35.25;99259.25;4771716;30;19964;-67
2022/03/10 07:09:07;;;;;;;;;;;;;;;12.86;34.28;99263.91;4773363;30;19959;-67
2022/03/10 07:11:35;;;;;;;;;;;;;;;14.06;32.73;99270.16;4771480;30;19950;-67
2022/03/10 07:14:02;;;;;;;;;;;;;;;15.21;30.36;99270.66;4776663;30;20348;-68
2022/03/10 07:16:29;;;;;;;;;;;;;;;16.20;28.67;99274.75;4776303;30;20376;-67
2022/03/10 07:18:57;;;;;;;;;;;;;;;17.96;26.03;99278.00;4790435;30;19950;-67
2022/03/10 07:21:24;;;;;;;;;;;;;;;19.18;24.56;99287.09;4792377;30;19952;-67
2022/03/10 07:23:53;;;;;;;;;;;;;;;20.44;23.26;99283.00;4791377;30;19970;-68
2022/03/10 07:26:21;;;;;;;;;;;;;;;21.91;21.46;99286.19;4790631;30;19951;-68
2022/03/10 07:28:48;;;;;;;;;;;;;;;23.01;20.42;99295.78;4790450;30;19975;-68
2022/03/10 07:31:16;;;;;;;;;;;;;;;23.20;20.20;99300.47;4790320;30;20260;-67
2022/03/10 07:33:44;;;;;;;;;;;;;;;22.55;20.50;99302.16;4790884;30;19960;-67
2022/03/10 07:36:14;;;;;;;;;;;;;;;21.66;21.00;99297.44;4791560;29;20237;-67
2022/03/10 07:38:42;;;;;;;;;;;;;;;20.74;21.80;99299.75;4791984;30;20254;-68
2022/03/10 07:41:09;;;;;;;;;;;;;;;19.98;22.99;99295.31;4793201;30;19955;-68
2022/03/10 07:43:36;;;;;;;;;;;;;;;19.09;23.14;99299.03;4788832;30;19966;-68
2022/03/10 07:46:05;;;;;;;;;;;;;;;18.66;23.96;99295.25;4791814;30;19963;-67
2022/03/10 07:48:32;;;;;;;;;;;;;;;18.24;24.53;99291.00;4791109;29;19950;-67
2022/03/10 07:51:01;;;;;;;;;;;;;;;18.04;24.72;99287.22;4789955;30;19951;-67
2022/03/10 07:53:28;;;;;;;;;;;;;;;17.78;25.12;99285.91;4791722;30;19950;-68
2022/03/10 07:55:56;;;;;;;;;;;;;;;17.64;25.23;99292.53;4792591;29;19953;-67
2022/03/10 07:58:25;;;;;;;;;;;;;;;17.51;25.42;99290.63;4791436;29;19954;-67
2022/03/10 08:00:57;;;;;;;;;;;;;;;17.30;25.85;99291.66;4790434;30;19955;-67
2022/03/10 08:03:27;;;;;;;;;;;;;;;17.17;26.20;99293.38;4791126;29;19994;-67
2022/03/10 08:05:55;;;;;;;;;;;;;;;17.16;26.46;99296.66;4792514;30;19950;-67
2022/03/10 08:08:22;;;;;;;;;;;;;;;16.97;26.24;99290.34;4791094;30;19955;-67
2022/03/10 08:10:49;;;;;;;;;;;;;;;16.75;26.99;99285.31;4762434;30;19956;-67
2022/03/10 08:13:19;;;;;;;;;;;;;;;16.46;27.98;99290.28;4792027;30;20228;-67
2022/03/10 08:15:47;;;;;;;;;;;;;;;16.53;27.16;99283.84;4791766;30;19975;-67
2022/03/10 08:18:16;;;;;;;;;;;;;;;16.35;27.72;99278.28;4791751;30;20242;-67
2022/03/10 08:20:56;;;;;;;;;;;;;;;16.32;27.77;99273.47;4789661;30;19989;-68
2022/03/10 08:23:24;;;;;;;;;;;;;;;16.01;28.26;99266.78;4792398;30;19964;-67
2022/03/10 08:25:51;;;;;;;;;;;;;;;15.92;28.52;99271.28;4792580;30;20224;-67
2022/03/10 08:28:18;;;;;;;;;;;;;;;15.71;29.15;99274.97;4792021;30;20243;-69
2022/03/10 08:30:46;;;;;;;;;;;;;;;15.33;30.01;99268.19;4792588;30;19996;-67
2022/03/10 08:33:14;;;;;;;;;;;;;;;15.31;30.20;99273.44;4791327;30;19956;-68
2022/03/10 08:35:41;;;;;;;;;;;;;;;15.18;30.42;99268.66;4792534;30;20378;-68
2022/03/10 08:38:08;;;;;;;;;;;;;;;15.09;30.69;99266.22;4791402;30;20022;-67
2022/03/10 08:40:35;;;;;;;;;;;;;;;14.98;31.54;99263.44;4791886;30;19957;-67
2022/03/10 08:43:05;;;;;;;;;;;;;;;14.73;31.31;99271.09;4792359;30;19965;-68
2022/03/10 08:45:32;;;;;;;;;;;;;;;14.49;31.84;99266.25;4792189;29;19959;-68
2022/03/10 08:48:00;;;;;;;;;;;;;;;14.51;32.58;99266.66;4765355;30;19951;-67
2022/03/10 08:50:27;;;;;;;;;;;;;;;14.53;33.01;99260.63;4788066;30;19945;-67
2022/03/10 08:52:55;;;;;;;;;;;;;;;14.48;33.12;99264.63;4791944;30;20250;-67
2022/03/10 08:55:22;;;;;;;;;;;;;;;14.41;33.13;99257.00;4791505;30;20468;-67
2022/03/10 08:57:50;;;;;;;;;;;;;;;14.35;34.51;99260.63;4791350;30;20248;-68
2022/03/10 09:00:20;;;;;;;;;;;;;;;14.09;34.37;99258.91;4792575;30;19951;-68
2022/03/10 09:02:49;;;;;;;;;;;;;;;14.09;34.74;99260.91;4791727;30;20360;-67
2022/03/10 09:05:17;;;;;;;;;;;;;;;14.11;35.51;99261.34;4792749;30;19960;-67
2022/03/10 09:07:45;;;;;;;;;;;;;;;14.19;35.03;99260.13;4781653;30;19945;-67
2022/03/10 09:10:12;;;;;;;;;;;;;;;14.00;35.14;99257.69;4792219;30;19985;-68
2022/03/10 09:12:39;;;;;;;;;;;;;;;13.89;36.05;99257.66;4791201;30;20325;-67
2022/03/10 09:15:08;;;;;;;;;;;;;;;14.04;35.36;99253.69;4790370;30;19970;-67
2022/03/10 09:17:35;;;;;;;;;;;;;;;13.72;34.99;99255.56;4791413;30;19952;-67
2022/03/10 09:20:05;;;;;;;;;;;;;;;13.67;35.53;99247.53;4791886;30;20264;-67
2022/03/10 09:22:32;;;;;;;;;;;;;;;13.18;36.23;99248.09;4789797;30;19962;-67
2022/03/10 09:25:02;;;;;;;;;;;;;;;13.46;36.11;99247.44;4790690;30;19950;-67
2022/03/10 09:27:30;;;;;;;;;;;;;;;13.28;37.31;99252.97;4789870;30;19959;-67
2022/03/10 09:29:57;;;;;;;;;;;;;;;13.06;37.18;99252.03;4787989;30;19953;-67
2022/03/10 09:32:24;;;;;;;;;;;;;;;12.98;37.29;99243.94;4787484;30;20272;-67
2022/03/10 09:34:52;;;;;;;;;;;;;;;13.14;36.46;99250.06;4785884;29;19958;-68
2022/03/10 09:37:19;;;;;;;;;;;;;;;12.86;36.50;99247.06;4796196;29;19958;-67
2022/03/10 09:39:46;;;;;;;;;;;;;;;12.86;36.09;99247.06;4789691;30;19964;-67
2022/03/10 09:42:15;;;;;;;;;;;;;;;12.71;36.36;99246.16;4789708;30;19956;-68
2022/03/10 09:44:43;;;;;;;;;;;;;;;12.98;36.03;99241.13;4790543;29;19983;-68
2022/03/10 09:47:10;;;;;;;;;;;;;;;13.02;36.00;99244.75;4789429;30;19958;-68
2022/03/10 09:49:39;;;;;;;;;;;;;;;12.94;35.63;99237.47;4791062;30;19956;-67
2022/03/10 09:52:08;;;;;;;;;;;;;;;13.10;35.53;99243.63;4791037;30;20254;-67
2022/03/10 09:54:37;;;;;;;;;;;;;;;12.40;36.62;99239.06;4790968;30;20297;-67
2022/03/10 09:57:07;;;;;;;;;;;;;;;12.46;36.55;99233.91;4791405;29;19956;-68
2022/03/10 09:59:46;;;;;;;;;;;;;;;12.57;36.72;99234.78;4790015;30;19951;-67
2022/03/10 10:02:13;;;;;;;;;;;;;;;12.75;36.12;99229.31;4788271;30;19963;-67
2022/03/10 10:04:41;;;;;;;;;;;;;;;12.79;36.81;99230.16;4789626;30;19966;-68
2022/03/10 10:07:10;;;;;;;;;;;;;;;12.66;37.31;99234.47;4789435;29;19964;-67
2022/03/10 10:09:43;;;;;;;;;;;;;;;12.97;36.75;99226.28;4785483;29;19949;-67
2022/03/10 10:12:11;;;;;;;;;;;;;;;13.00;36.48;99233.94;4785011;30;20236;-67
2022/03/10 10:14:42;;;;;;;;;;;;;;;12.36;38.70;99231.81;4784182;30;19982;-68
2022/03/10 10:17:10;;;;;;;;;;;;;;;12.33;39.35;99235.38;4789182;30;19951;-68
2022/03/10 10:19:38;;;;;;;;;;;;;;;12.63;37.37;99232.44;4789880;30;19956;-67
2022/03/10 10:22:19;;;;;;;;;;;;;;;12.62;38.38;99231.63;4785680;30;19969;-67
2022/03/10 10:24:50;;;;;;;;;;;;;;;12.77;37.91;99229.72;4789768;30;19967;-67
2022/03/10 10:27:23;;;;;;;;;;;;;;;12.95;38.43;99225.06;4789659;30;20196;-67
2022/03/10 10:29:54;;;;;;;;;;;;;;;13.01;37.56;99231.91;4790636;30;19959;-68
2022/03/10 10:32:34;;;;;;;;;;;;;;;12.78;37.10;99234.16;4789642;30;19957;-67
2022/03/10 10:35:08;;;;;;;;;;;;;;;12.69;37.80;99230.91;4784921;30;19949;-67
2022/03/10 10:37:36;;;;;;;;;;;;;;;12.61;39.84;99229.22;4789416;30;19947;-68
2022/03/10 10:40:07;;;;;;;;;;;;;;;12.48;37.62;99225.91;4790537;30;20252;-68
2022/03/10 10:42:36;;;;;;;;;;;;;;;12.75;38.92;99226.50;4785623;30;19956;-67
2022/03/10 10:45:42;;;;;;;;;;;;;;;12.23;37.96;99227.66;4790366;30;19967;-67
2022/03/10 10:48:10;;;;;;;;;;;;;;;11.97;39.49;99227.81;4737481;30;19957;-67
2022/03/10 10:50:39;;;;;;;;;;;;;;;12.31;39.21;99226.56;4748521;30;19962;-67
2022/03/10 10:53:07;;;;;;;;;;;;;;;12.45;39.01;99227.47;4769731;30;20331;-67
2022/03/10 10:55:35;;;;;;;;;;;;;;;12.72;38.59;99216.06;4774926;30;20368;-68
2022/03/10 10:58:10;;;;;;;;;;;;;;;12.84;39.31;99219.34;4789111;30;19952;-67
2022/03/10 11:00:42;;;;;;;;;;;;;;;12.92;38.40;99218.22;4789242;30;19959;-68
2022/03/10 11:03:22;;;;;;;;;;;;;;;13.07;39.20;99213.53;4789374;30;19977;-67
2022/03/10 11:05:51;;;;;;;;;;;;;;;12.88;39.51;99205.38;4789363;30;20350;-67
2022/03/10 11:08:20;;;;;;;;;;;;;;;12.53;39.04;99206.72;4790008;30;19957;-67
2022/03/10 11:10:48;;;;;;;;;;;;;;;12.66;39.75;99203.59;4786520;30;20351;-67
2022/03/10 11:13:17;;;;;;;;;;;;;;;12.81;40.54;99206.13;4783763;30;20528;-68
2022/03/10 11:15:45;;;;;;;;;;;;;;;13.03;40.31;99201.44;4793775;30;19979;-67
2022/03/10 11:18:13;;;;;;;;;;;;;;;12.67;39.90;99194.78;4781010;30;19948;-68
2022/03/10 11:20:44;;;;;;;;;;;;;;;12.74;39.17;99199.66;4788172;30;19977;-68
2022/03/10 11:23:21;;;;;;;;;;;;;;;12.65;38.83;99202.78;4791356;30;20333;-67
2022/03/10 11:25:57;;;;;;;;;;;;;;;12.73;39.46;99196.03;4792575;30;19962;-67
2022/03/10 11:28:28;;;;;;;;;;;;;;;12.27;41.77;99187.28;4789811;30;20344;-67
2022/03/10 11:30:59;;;;;;;;;;;;;;;12.30;39.68;99182.91;4793359;30;19958;-67
2022/03/10 11:33:30;;;;;;;;;;;;;;;12.46;40.08;99189.03;4788022;29;19949;-67
2022/03/10 11:35:58;;;;;;;;;;;;;;;12.14;41.01;99179.53;4786410;30;19963;-68
2022/03/10 11:38:49;;;;;;;;;;;;;;;11.84;42.79;99174.84;4787079;30;19951;-67
2022/03/10 11:41:17;;;;;;;;;;;;;;;11.98;41.37;99168.59;4788597;30;19983;-67
2022/03/10 11:43:54;;;;;;;;;;;;;;;11.81;42.29;99166.41;4785616;30;19964;-67
2022/03/10 11:46:22;;;;;;;;;;;;;;;12.12;43.16;99165.09;4792436;29;19952;-67
2022/03/10 11:49:10;;;;;;;;;;;;;;;11.75;42.14;99167.94;4791498;30;19955;-67
2022/03/10 11:51:44;;;;;;;;;;;;;;;11.99;42.20;99153.38;4785059;30;19953;-67
2022/03/10 11:54:15;;;;;;;;;;;;;;;11.82;42.30;99160.41;4789244;30;20261;-67
2022/03/10 11:56:45;;;;;;;;;;;;;;;11.82;41.48;99154.00;4793285;30;19985;-67
2022/03/10 11:59:22;;;;;;;;;;;;;;;12.03;41.45;99154.19;4793309;30;20147;-67
2022/03/10 12:01:49;;;;;;;;;;;;;;;12.26;40.64;99143.59;4794933;29;19990;-67
2022/03/10 12:04:18;;;;;;;;;;;;;;;12.36;40.55;99144.88;4792821;30;20274;-67
2022/03/10 12:06:56;;;;;;;;;;;;;;;12.39;40.61;99139.28;4792898;30;19963;-67
2022/03/10 12:09:27;;;;;;;;;;;;;;;12.16;41.98;99135.91;4793055;30;19955;-67
2022/03/10 12:12:11;;;;;;;;;;;;;;;12.32;40.47;99133.59;4792011;30;19951;-67
2022/03/10 12:14:56;;;;;;;;;;;;;;;12.15;42.53;99133.50;4791267;30;19950;-67
2022/03/10 12:17:42;;;;;;;;;;;;;;;12.11;43.02;99135.44;4790595;29;19954;-67
2022/03/10 12:20:12;;;;;;;;;;;;;;;12.25;42.58;99141.19;4792527;30;19960;-68
2022/03/10 12:22:39;;;;;;;;;;;;;;;12.27;43.40;99130.38;4792060;30;19972;-67
2022/03/10 12:25:17;;;;;;;;;;;;;;;12.25;43.18;99127.94;4788207;30;19966;-67
2022/03/10 12:27:48;;;;;;;;;;;;;;;12.25;42.68;99125.13;4783699;30;20341;-67
2022/03/10 12:30:18;;;;;;;;;;;;;;;12.38;43.40;99118.03;4787926;30;19980;-67
2022/03/10 12:32:48;;;;;;;;;;;;;;;12.37;42.63;99119.22;4791719;30;19954;-67
2022/03/10 12:35:17;;;;;;;;;;;;;;;12.23;42.22;99115.50;4791117;30;19952;-67
2022/03/10 12:37:48;;;;;;;;;;;;;;;12.32;44.25;99108.38;4789818;29;20028;-67
2022/03/10 12:40:18;;;;;;;;;;;;;;;12.28;43.32;99110.34;4791825;30;19958;-67
2022/03/10 12:42:46;;;;;;;;;;;;;;;12.22;41.83;99102.69;4791948;30;20251;-67
2022/03/10 12:45:18;;;;;;;;;;;;;;;12.34;43.27;99097.59;4791938;30;20369;-67
2022/03/10 12:47:48;;;;;;;;;;;;;;;12.32;42.96;99093.56;4791224;30;20252;-67
2022/03/10 12:50:15;;;;;;;;;;;;;;;12.23;42.83;99093.88;4787222;29;19961;-67
2022/03/10 12:52:42;;;;;;;;;;;;;;;12.33;44.12;99083.94;4793137;29;19951;-67
2022/03/10 12:55:10;;;;;;;;;;;;;;;12.33;42.25;99090.34;4791945;30;20532;-67
2022/03/10 12:57:37;;;;;;;;;;;;;;;12.33;41.43;99084.75;4788464;30;19954;-67
2022/03/10 13:00:18;;;;;;;;;;;;;;;12.13;41.28;99083.41;4790451;30;19969;-67
2022/03/10 13:02:45;;;;;;;;;;;;;;;12.22;42.65;99078.28;4791147;30;19962;-66
2022/03/10 13:05:19;;;;;;;;;;;;;;;12.40;41.25;99076.38;4786299;29;19973;-67
2022/03/10 13:07:46;;;;;;;;;;;;;;;12.56;41.16;99076.09;4789194;30;20340;-67
2022/03/10 13:10:15;;;;;;;;;;;;;;;12.58;40.11;99075.69;4790117;29;19957;-66
2022/03/10 13:12:43;;;;;;;;;;;;;;;12.29;42.01;99069.91;4791135;30;19954;-66
2022/03/10 13:15:19;;;;;;;;;;;;;;;12.28;42.42;99073.91;4791160;30;19978;-67
2022/03/10 13:17:49;;;;;;;;;;;;;;;12.41;42.20;99063.16;4791822;30;20014;-67
2022/03/10 13:20:25;;;;;;;;;;;;;;;12.54;41.77;99061.66;4775795;30;19954;-67
2022/03/10 13:22:57;;;;;;;;;;;;;;;12.72;42.74;99062.53;4790230;30;19964;-67
2022/03/10 13:25:26;;;;;;;;;;;;;;;12.84;41.81;99061.38;4777892;30;19964;-67
2022/03/10 13:28:07;;;;;;;;;;;;;;;12.64;42.88;99048.88;4791649;30;19954;-66
2022/03/10 13:30:36;;;;;;;;;;;;;;;12.51;42.11;99059.63;4788240;30;20249;-67
2022/03/10 13:33:06;;;;;;;;;;;;;;;12.43;41.94;99057.97;4789742;29;19954;-67
2022/03/10 13:35:35;;;;;;;;;;;;;;;12.58;42.15;99056.84;4790744;29;20207;-67
2022/03/10 13:38:03;;;;;;;;;;;;;;;12.82;42.89;99046.94;4789844;30;19962;-67
2022/03/10 13:40:32;;;;;;;;;;;;;;;12.57;41.04;99044.00;4790248;30;20342;-67
2022/03/10 13:43:00;;;;;;;;;;;;;;;12.41;42.04;99051.94;4787154;30;19960;-67
2022/03/10 13:45:28;;;;;;;;;;;;;;;12.15;41.79;99044.56;4791562;30;19978;-67
2022/03/10 13:47:59;;;;;;;;;;;;;;;12.30;41.77;99045.47;4791534;30;20370;-67
2022/03/10 13:50:38;;;;;;;;;;;;;;;12.27;43.29;99040.66;4788309;30;19961;-67
2022/03/10 13:53:06;;;;;;;;;;;;;;;12.32;42.39;99040.28;4790543;29;19948;-67
2022/03/10 13:55:34;;;;;;;;;;;;;;;12.35;42.29;99045.88;4790510;30;19962;-67
2022/03/10 13:58:03;;;;;;;;;;;;;;;12.33;41.94;99045.47;4787727;30;19956;-66
2022/03/10 14:00:36;;;;;;;;;;;;;;;12.28;41.83;99037.44;4782906;29;19950;-67
2022/03/10 14:03:05;;;;;;;;;;;;;;;12.26;44.26;99039.84;4786403;30;20373;-67
2022/03/10 14:05:42;;;;;;;;;;;;;;;12.20;42.36;99032.97;4786814;30;19974;-67
2022/03/10 14:08:12;;;;;;;;;;;;;;;12.26;42.70;99033.41;4786548;30;19959;-66
2022/03/10 14:10:44;;;;;;;;;;;;;;;12.25;42.94;99026.22;4778006;30;19951;-67
2022/03/10 14:13:11;;;;;;;;;;;;;;;12.35;43.05;99020.66;4790694;30;19950;-67
2022/03/10 14:15:40;;;;;;;;;;;;;;;12.33;42.24;99025.03;4790300;30;19971;-67
2022/03/10 14:18:12;;;;;;;;;;;;;;;12.30;42.34;99025.84;4786212;30;19954;-66
2022/03/10 14:20:39;;;;;;;;;;;;;;;12.39;41.95;99024.31;4790427;30;19954;-67
2022/03/10 14:23:10;;;;;;;;;;;;;;;12.39;42.42;99013.06;4785471;30;19954;-67
2022/03/10 14:25:38;;;;;;;;;;;;;;;12.36;42.43;99011.06;4789125;30;20391;-66
2022/03/10 14:28:06;;;;;;;;;;;;;;;12.28;42.66;99011.38;4789110;29;20375;-67
2022/03/10 14:30:35;;;;;;;;;;;;;;;12.29;43.76;99013.00;4782771;30;19951;-66
2022/03/10 14:33:02;;;;;;;;;;;;;;;12.11;43.20;99012.91;4790080;30;19950;-66
2022/03/10 14:35:30;;;;;;;;;;;;;;;12.12;44.00;99006.09;4790678;29;19965;-67
2022/03/10 14:38:00;;;;;;;;;;;;;;;12.06;42.80;99010.47;4790620;29;19959;-67
2022/03/10 14:40:27;;;;;;;;;;;;;;;12.01;42.29;99002.41;4789809;30;19951;-67
2022/03/10 14:42:55;;;;;;;;;;;;;;;12.03;41.70;98996.44;4790986;29;19950;-67
2022/03/10 14:45:22;;;;;;;;;;;;;;;12.02;43.18;99003.22;4793059;29;19968;-67
2022/03/10 14:47:49;;;;;;;;;;;;;;;11.86;42.35;98990.31;4777552;30;19959;-67
2022/03/10 14:50:17;;;;;;;;;;;;;;;12.15;42.70;98987.69;4794375;30;19958;-67
2022/03/10 14:52:45;;;;;;;;;;;;;;;12.12;43.25;98986.47;4793743;30;20332;-67
2022/03/10 14:55:15;;;;;;;;;;;;;;;12.15;42.77;98985.69;4793286;30;19955;-67
2022/03/10 14:57:43;;;;;;;;;;;;;;;12.04;43.18;98978.41;4789428;30;20347;-66
2022/03/10 15:00:13;;;;;;;;;;;;;;;12.00;42.25;98980.38;4788490;30;19953;-66
2022/03/10 15:02:40;;;;;;;;;;;;;;;11.99;42.16;98967.56;4791418;30;19948;-66
2022/03/10 15:05:09;;;;;;;;;;;;;;;11.98;42.47;98971.56;4793047;30;19952;-67
2022/03/10 15:07:37;;;;;;;;;;;;;;;12.12;41.72;98969.66;4793839;30;19950;-67
2022/03/10 15:10:12;;;;;;;;;;;;;;;11.97;42.50;98972.75;4791478;30;19986;-66
2022/03/10 15:12:39;;;;;;;;;;;;;;;11.95;42.33;98966.75;4794230;29;19954;-67
2022/03/10 15:15:07;;;;;;;;;;;;;;;11.99;44.09;98971.19;4791919;30;19975;-67
2022/03/10 15:17:34;;;;;;;;;;;;;;;11.90;42.23;98969.91;4793462;30;20353;-66
2022/03/10 15:20:02;;;;;;;;;;;;;;;11.78;42.30;98966.25;4793824;30;20250;-66
2022/03/10 15:22:29;;;;;;;;;;;;;;;11.80;42.82;98963.03;4790954;30;20248;-66
2022/03/10 15:24:57;;;;;;;;;;;;;;;11.79;43.88;98969.84;4789278;30;19960;-66
2022/03/10 15:27:24;;;;;;;;;;;;;;;11.74;42.82;98964.59;4792806;30;19982;-67
2022/03/10 15:29:51;;;;;;;;;;;;;;;11.76;42.62;98965.03;4793363;30;19955;-67
2022/03/10 15:32:19;;;;;;;;;;;;;;;11.74;43.43;98957.00;4784143;30;19969;-67
2022/03/10 15:34:47;;;;;;;;;;;;;;;11.72;42.90;98965.00;4793660;29;20470;-67
2022/03/10 15:37:15;;;;;;;;;;;;;;;11.66;44.18;98966.50;4777417;30;20253;-67
2022/03/10 15:39:43;;;;;;;;;;;;;;;11.58;43.92;98964.88;4793014;30;19980;-66
2022/03/10 15:42:11;;;;;;;;;;;;;;;11.57;43.95;98960.44;4793189;30;19959;-66
2022/03/10 15:44:38;;;;;;;;;;;;;;;11.52;44.10;98962.78;4779277;30;19960;-66
2022/03/10 15:47:05;;;;;;;;;;;;;;;11.54;44.13;98963.22;4792055;30;19981;-66
2022/03/10 15:49:35;;;;;;;;;;;;;;;11.50;43.69;98959.56;4790347;30;19959;-66
2022/03/10 15:52:03;;;;;;;;;;;;;;;11.44;44.48;98963.94;4787244;29;19960;-66
2022/03/10 15:54:31;;;;;;;;;;;;;;;11.48;43.99;98959.97;4787177;30;19950;-66
2022/03/10 15:56:58;;;;;;;;;;;;;;;11.53;43.78;98962.41;4791795;29;20254;-66
2022/03/10 15:59:27;;;;;;;;;;;;;;;11.46;43.74;98967.16;4790533;30;19951;-67
2022/03/10 16:01:54;;;;;;;;;;;;;;;11.59;43.93;98962.88;4762623;30;20251;-67
2022/03/10 16:04:23;;;;;;;;;;;;;;;11.49;43.47;98960.78;4789394;29;19951;-66
2022/03/10 16:06:50;;;;;;;;;;;;;;;11.43;44.27;98963.13;4790621;30;19968;-67
2022/03/10 16:09:18;;;;;;;;;;;;;;;11.37;43.84;98969.47;4792334;30;20341;-67
2022/03/10 16:11:45;;;;;;;;;;;;;;;11.37;43.47;98969.47;4792285;30;20374;-66
2022/03/10 16:14:12;;;;;;;;;;;;;;;11.37;43.57;98963.88;4792853;30;19968;-66
2022/03/10 16:16:40;;;;;;;;;;;;;;;11.32;43.77;98967.03;4789162;30;19982;-67
2022/03/10 16:19:09;;;;;;;;;;;;;;;11.32;43.55;98967.03;4790458;30;19962;-67
2022/03/10 16:21:36;;;;;;;;;;;;;;;11.26;43.76;98958.19;4792181;30;19954;-67
2022/03/10 16:24:05;;;;;;;;;;;;;;;11.25;43.76;98961.38;4792589;30;20368;-67
2022/03/10 16:26:33;;;;;;;;;;;;;;;11.24;43.84;98960.56;4792070;30;19965;-67
2022/03/10 16:29:01;;;;;;;;;;;;;;;11.19;43.88;98967.34;4787367;29;19957;-67
2022/03/10 16:31:28;;;;;;;;;;;;;;;11.15;43.83;98968.50;4788884;30;19950;-67
2022/03/10 16:33:55;;;;;;;;;;;;;;;11.20;43.55;98971.72;4777978;30;20261;-67
2022/03/10 16:36:26;;;;;;;;;;;;;;;11.13;43.00;98970.84;4792249;30;19958;-67
2022/03/10 16:38:55;;;;;;;;;;;;;;;11.18;42.70;98962.09;4792028;30;19953;-67
2022/03/10 16:41:23;;;;;;;;;;;;;;;11.12;42.74;98970.06;4786408;30;19955;-66
2022/03/10 16:43:51;;;;;;;;;;;;;;;11.06;43.03;98966.00;4784540;30;19963;-66
2022/03/10 16:46:18;;;;;;;;;;;;;;;11.01;43.16;98968.31;4791988;30;19967;-67
2022/03/10 16:48:46;;;;;;;;;;;;;;;10.94;43.36;98973.84;4791350;30;19957;-66
2022/03/10 16:51:13;;;;;;;;;;;;;;;10.90;42.81;98973.03;4791510;30;20285;-66
2022/03/10 16:53:40;;;;;;;;;;;;;;;10.88;42.71;98970.59;4792488;30;19961;-66
2022/03/10 16:56:08;;;;;;;;;;;;;;;10.72;43.67;98966.41;4779765;30;19950;-66
2022/03/10 16:58:35;;;;;;;;;;;;;;;10.66;44.20;98979.94;4787591;30;19954;-67
2022/03/10 17:01:03;;;;;;;;;;;;;;;10.49;44.75;98972.94;4791865;30;20255;-66
2022/03/10 17:03:30;;;;;;;;;;;;;;;10.38;44.12;98986.00;4791520;30;19959;-66
2022/03/10 17:06:00;;;;;;;;;;;;;;;10.27;44.66;98978.69;4790264;30;19954;-67
2022/03/10 17:08:27;;;;;;;;;;;;;;;10.14;45.54;98982.88;4785450;29;20304;-66
2022/03/10 17:10:55;;;;;;;;;;;;;;;10.06;45.56;98981.13;4790960;30;20237;-66
2022/03/10 17:13:22;;;;;;;;;;;;;;;10.00;45.48;98977.84;4791546;30;19954;-66
2022/03/10 17:15:50;;;;;;;;;;;;;;;9.95;46.33;98982.97;4791431;30;20494;-66
2022/03/10 17:18:18;;;;;;;;;;;;;;;9.88;47.00;98984.47;4788362;29;20234;-66
2022/03/10 17:20:46;;;;;;;;;;;;;;;9.81;46.71;98976.00;4790815;30;19961;-66
2022/03/10 17:23:13;;;;;;;;;;;;;;;9.73;46.72;98979.06;4791644;30;19950;-66
2022/03/10 17:25:41;;;;;;;;;;;;;;;9.64;46.90;98979.31;4791576;30;20253;-66
2022/03/10 17:28:08;;;;;;;;;;;;;;;9.60;47.95;98978.47;4790644;30;19998;-67
2022/03/10 17:30:35;;;;;;;;;;;;;;;9.62;47.26;98981.69;4792004;30;19951;-66
2022/03/10 17:33:03;;;;;;;;;;;;;;;9.62;47.57;98980.88;4789492;30;19950;-67
2022/03/10 17:35:30;;;;;;;;;;;;;;;9.59;48.19;98982.44;4787239;30;20266;-67
2022/03/10 17:38:00;;;;;;;;;;;;;;;9.55;48.51;98981.56;4787846;29;19950;-67
2022/03/10 17:40:29;;;;;;;;;;;;;;;9.53;47.69;98988.72;4788414;30;19953;-67
2022/03/10 17:42:57;;;;;;;;;;;;;;;9.54;47.92;98985.53;4789837;30;19954;-66
2022/03/10 17:45:25;;;;;;;;;;;;;;;9.55;47.96;98992.75;4789243;30;19964;-66
2022/03/10 17:47:53;;;;;;;;;;;;;;;9.52;47.60;98987.91;4789535;30;20035;-67
2022/03/10 17:50:24;;;;;;;;;;;;;;;9.44;48.08;98991.75;4789287;30;19955;-67
2022/03/10 17:52:52;;;;;;;;;;;;;;;9.40;48.06;99002.06;4789404;30;19962;-67
2022/03/10 17:55:19;;;;;;;;;;;;;;;9.38;48.92;99000.81;4789597;29;19959;-67
2022/03/10 17:57:46;;;;;;;;;;;;;;;9.39;48.68;99010.81;4789120;30;19950;-67
2022/03/10 18:00:16;;;;;;;;;;;;;;;9.50;48.70;98995.03;4786149;30;19956;-66
2022/03/10 18:02:45;;;;;;;;;;;;;;;9.55;48.28;99000.31;4791302;29;19960;-66
2022/03/10 18:05:13;;;;;;;;;;;;;;;9.67;48.07;99000.09;4787586;30;19950;-66
2022/03/10 18:07:42;;;;;;;;;;;;;;;9.61;48.36;98996.81;4790369;30;19971;-66
2022/03/10 18:10:10;;;;;;;;;;;;;;;9.56;48.83;98996.34;4791338;30;19956;-66
2022/03/10 18:12:38;;;;;;;;;;;;;;;9.53;48.65;98994.28;4791555;30;19959;-66
2022/03/10 18:15:05;;;;;;;;;;;;;;;9.54;48.79;98995.88;4790873;30;19971;-66
2022/03/10 18:17:33;;;;;;;;;;;;;;;9.44;49.47;98990.97;4790853;29;19951;-66
2022/03/10 18:20:04;;;;;;;;;;;;;;;9.46;48.91;98997.78;4792818;30;19962;-66
2022/03/10 18:22:31;;;;;;;;;;;;;;;9.47;49.92;98995.78;4794198;30;20344;-66
2022/03/10 18:24:59;;;;;;;;;;;;;;;9.51;49.77;99002.25;4789243;30;19965;-66
2022/03/10 18:27:26;;;;;;;;;;;;;;;9.49;49.28;99010.16;4794935;30;19968;-66
2022/03/10 18:29:53;;;;;;;;;;;;;;;9.48;49.55;99000.19;4794305;30;20330;-66
2022/03/10 18:32:21;;;;;;;;;;;;;;;9.44;49.72;99007.72;4793039;30;19956;-66
2022/03/10 18:34:48;;;;;;;;;;;;;;;9.41;50.35;99006.47;4782501;30;19982;-67
2022/03/10 18:37:16;;;;;;;;;;;;;;;9.37;51.02;99005.59;4793592;29;19949;-66
2022/03/10 18:39:44;;;;;;;;;;;;;;;9.31;50.47;99009.88;4789979;30;19961;-66
2022/03/10 18:42:12;;;;;;;;;;;;;;;9.38;49.93;99009.19;4793658;29;19962;-66
2022/03/10 18:44:42;;;;;;;;;;;;;;;9.34;50.34;99009.13;4795378;29;19951;-67
2022/03/10 18:47:10;;;;;;;;;;;;;;;9.33;50.80;99013.09;4792464;29;19980;-66
2022/03/10 18:49:39;;;;;;;;;;;;;;;9.30;50.41;99018.59;4793911;30;19951;-66
2022/03/10 18:52:07;;;;;;;;;;;;;;;9.24;51.09;99015.34;4793438;29;19958;-66
2022/03/10 18:54:34;;;;;;;;;;;;;;;9.21;51.38;99016.91;4794740;29;20238;-66
2022/03/10 18:57:03;;;;;;;;;;;;;;;9.19;51.16;99018.44;4793931;30;19955;-66
2022/03/10 18:59:32;;;;;;;;;;;;;;;9.15;52.10;99017.56;4793169;30;19964;-67
2022/03/10 19:01:59;;;;;;;;;;;;;;;9.11;51.46;99023.09;4793443;29;19952;-67
2022/03/10 19:04:27;;;;;;;;;;;;;;;9.10;51.67;99023.44;4794381;30;19955;-66
2022/03/10 19:06:55;;;;;;;;;;;;;;;9.06;51.25;99020.59;4790270;29;19963;-67
2022/03/10 19:09:23;;;;;;;;;;;;;;;9.02;51.98;99021.72;4794554;30;19948;-67
2022/03/10 19:11:50;;;;;;;;;;;;;;;9.03;51.71;99020.50;4793974;30;19965;-67
2022/03/10 19:14:18;;;;;;;;;;;;;;;9.05;51.15;99027.34;4790302;30;19956;-66